sensor_id;sensor_type;location;lat;lon;timestamp;temperature;humidity
35613;DHT22;22054;51.646;7.078;2023-06-04T00:00:37;13.80;99.90
35613;DHT22;22054;51.646;7.078;2023-06-04T00:03:03;13.80;99.90
35613;DHT22;22054;51.646;7.078;2023-06-04T00:05:29;13.70;99.90
35613;DHT22;22054;51.646;7.078;2023-06-04T00:07:54;13.70;99.90
35613;DHT22;22054;51.646;7.078;2023-06-04T00:10:20;13.80;99.90
35613;DHT22;22054;51.646;7.078;2023-06-04T00:12:45;13.90;99.90
35613;DHT22;22054;51.646;7.078;2023-06-04T00:15:13;13.90;99.90
35613;DHT22;22054;51.646;7.078;2023-06-04T00:17:40;13.60;99.90
35613;DHT22;22054;51.646;7.078;2023-06-04T00:20:06;13.80;99.90
35613;DHT22;22054;51.646;7.078;2023-06-04T00:22:32;13.50;99.90
35613;DHT22;22054;51.646;7.078;2023-06-04T00:24:57;13.50;99.90
35613;DHT22;22054;51.646;7.078;2023-06-04T00:27:23;13.70;99.90
35613;DHT22;22054;51.646;7.078;2023-06-04T00:29:48;13.60;99.90
35613;DHT22;22054;51.646;7.078;2023-06-04T00:32:14;13.40;99.90
35613;DHT22;22054;51.646;7.078;2023-06-04T00:34:40;13.50;99.90
35613;DHT22;22054;51.646;7.078;2023-06-04T00:37:05;13.40;99.90
35613;DHT22;22054;51.646;7.078;2023-06-04T00:39:32;13.30;99.90
35613;DHT22;22054;51.646;7.078;2023-06-04T00:41:57;13.20;99.90
35613;DHT22;22054;51.646;7.078;2023-06-04T00:44:23;13.00;99.90
35613;DHT22;22054;51.646;7.078;2023-06-04T00:46:50;13.30;99.90
35613;DHT22;22054;51.646;7.078;2023-06-04T00:49:16;13.60;99.90
35613;DHT22;22054;51.646;7.078;2023-06-04T00:51:42;13.30;99.90
35613;DHT22;22054;51.646;7.078;2023-06-04T00:54:07;13.30;99.90
35613;DHT22;22054;51.646;7.078;2023-06-04T00:56:36;13.20;99.90
35613;DHT22;22054;51.646;7.078;2023-06-04T00:59:04;13.20;99.90
35613;DHT22;22054;51.646;7.078;2023-06-04T01:01:56;13.20;99.90
35613;DHT22;22054;51.646;7.078;2023-06-04T01:07:02;13.10;99.90
35613;DHT22;22054;51.646;7.078;2023-06-04T01:09:28;13.10;99.90
35613;DHT22;22054;51.646;7.078;2023-06-04T01:11:54;13.10;99.90
35613;DHT22;22054;51.646;7.078;2023-06-04T01:14:20;13.30;99.90
35613;DHT22;22054;51.646;7.078;2023-06-04T01:16:47;13.10;99.90
35613;DHT22;22054;51.646;7.078;2023-06-04T01:22:11;13.00;99.90
35613;DHT22;22054;51.646;7.078;2023-06-04T01:24:42;12.90;99.90
35613;DHT22;22054;51.646;7.078;2023-06-04T01:27:09;12.90;99.90
35613;DHT22;22054;51.646;7.078;2023-06-04T01:29:35;12.90;99.90
35613;DHT22;22054;51.646;7.078;2023-06-04T01:32:01;12.90;99.90
35613;DHT22;22054;51.646;7.078;2023-06-04T01:34:27;12.80;99.90
35613;DHT22;22054;51.646;7.078;2023-06-04T01:36:53;12.80;99.90
35613;DHT22;22054;51.646;7.078;2023-06-04T01:39:19;12.90;99.90
35613;DHT22;22054;51.646;7.078;2023-06-04T01:41:44;12.80;99.90
35613;DHT22;22054;51.646;7.078;2023-06-04T01:44:10;12.70;99.90
35613;DHT22;22054;51.646;7.078;2023-06-04T01:46:35;12.70;99.90
35613;DHT22;22054;51.646;7.078;2023-06-04T01:49:01;12.60;99.90
35613;DHT22;22054;51.646;7.078;2023-06-04T01:51:27;12.60;99.90
35613;DHT22;22054;51.646;7.078;2023-06-04T01:53:52;12.80;99.90
35613;DHT22;22054;51.646;7.078;2023-06-04T01:56:18;12.60;99.90
35613;DHT22;22054;51.646;7.078;2023-06-04T01:58:46;12.50;99.90
35613;DHT22;22054;51.646;7.078;2023-06-04T02:01:11;12.50;99.90
35613;DHT22;22054;51.646;7.078;2023-06-04T02:03:37;12.40;99.90
35613;DHT22;22054;51.646;7.078;2023-06-04T02:06:04;12.50;99.90
35613;DHT22;22054;51.646;7.078;2023-06-04T02:08:33;12.40;99.90
35613;DHT22;22054;51.646;7.078;2023-06-04T02:10:59;12.30;99.90
35613;DHT22;22054;51.646;7.078;2023-06-04T02:13:25;12.10;99.90
35613;DHT22;22054;51.646;7.078;2023-06-04T02:15:50;12.20;99.90
35613;DHT22;22054;51.646;7.078;2023-06-04T02:18:18;12.30;99.90
35613;DHT22;22054;51.646;7.078;2023-06-04T02:20:47;12.40;99.90
35613;DHT22;22054;51.646;7.078;2023-06-04T02:23:13;12.20;99.90
35613;DHT22;22054;51.646;7.078;2023-06-04T02:25:39;12.20;99.90
35613;DHT22;22054;51.646;7.078;2023-06-04T02:28:06;12.10;99.90
35613;DHT22;22054;51.646;7.078;2023-06-04T02:30:32;12.40;99.90
35613;DHT22;22054;51.646;7.078;2023-06-04T02:32:58;12.10;99.90
35613;DHT22;22054;51.646;7.078;2023-06-04T02:35:26;12.10;99.90
35613;DHT22;22054;51.646;7.078;2023-06-04T02:37:52;12.10;99.90
35613;DHT22;22054;51.646;7.078;2023-06-04T02:40:18;12.10;99.90
35613;DHT22;22054;51.646;7.078;2023-06-04T02:42:43;12.10;99.90
35613;DHT22;22054;51.646;7.078;2023-06-04T02:45:10;12.00;99.90
35613;DHT22;22054;51.646;7.078;2023-06-04T02:47:36;12.10;99.90
35613;DHT22;22054;51.646;7.078;2023-06-04T02:50:02;12.30;99.90
35613;DHT22;22054;51.646;7.078;2023-06-04T02:52:28;12.00;99.90
35613;DHT22;22054;51.646;7.078;2023-06-04T02:54:55;12.20;99.90
35613;DHT22;22054;51.646;7.078;2023-06-04T02:57:21;11.90;99.90
35613;DHT22;22054;51.646;7.078;2023-06-04T02:59:47;11.80;99.90
35613;DHT22;22054;51.646;7.078;2023-06-04T03:02:12;11.80;99.90
35613;DHT22;22054;51.646;7.078;2023-06-04T03:04:40;11.80;99.90
35613;DHT22;22054;51.646;7.078;2023-06-04T03:07:06;11.70;99.90
35613;DHT22;22054;51.646;7.078;2023-06-04T03:09:33;11.90;99.90
35613;DHT22;22054;51.646;7.078;2023-06-04T03:12:02;11.80;99.90
35613;DHT22;22054;51.646;7.078;2023-06-04T03:14:28;11.60;99.90
35613;DHT22;22054;51.646;7.078;2023-06-04T03:16:59;11.80;99.90
35613;DHT22;22054;51.646;7.078;2023-06-04T03:19:27;11.70;99.90
35613;DHT22;22054;51.646;7.078;2023-06-04T03:21:53;11.70;99.90
35613;DHT22;22054;51.646;7.078;2023-06-04T03:24:19;11.70;99.90
35613;DHT22;22054;51.646;7.078;2023-06-04T03:26:44;11.70;99.90
35613;DHT22;22054;51.646;7.078;2023-06-04T03:29:10;11.80;99.90
35613;DHT22;22054;51.646;7.078;2023-06-04T03:31:37;11.80;99.90
35613;DHT22;22054;51.646;7.078;2023-06-04T03:34:02;11.80;99.90
35613;DHT22;22054;51.646;7.078;2023-06-04T03:36:30;11.80;99.90
35613;DHT22;22054;51.646;7.078;2023-06-04T03:38:57;11.80;99.90
35613;DHT22;22054;51.646;7.078;2023-06-04T03:41:22;11.80;99.90
35613;DHT22;22054;51.646;7.078;2023-06-04T03:43:48;11.90;99.90
35613;DHT22;22054;51.646;7.078;2023-06-04T03:46:14;11.70;99.90
35613;DHT22;22054;51.646;7.078;2023-06-04T03:48:41;11.70;99.90
35613;DHT22;22054;51.646;7.078;2023-06-04T03:51:07;11.70;99.90
35613;DHT22;22054;51.646;7.078;2023-06-04T03:53:32;11.70;99.90
35613;DHT22;22054;51.646;7.078;2023-06-04T03:55:58;11.70;99.90
35613;DHT22;22054;51.646;7.078;2023-06-04T03:58:23;11.70;99.90
35613;DHT22;22054;51.646;7.078;2023-06-04T04:00:49;11.70;99.90
35613;DHT22;22054;51.646;7.078;2023-06-04T04:03:15;11.60;99.90
35613;DHT22;22054;51.646;7.078;2023-06-04T04:05:40;11.60;99.90
35613;DHT22;22054;51.646;7.078;2023-06-04T04:08:06;11.70;99.90
35613;DHT22;22054;51.646;7.078;2023-06-04T04:10:34;11.80;99.90
35613;DHT22;22054;51.646;7.078;2023-06-04T04:12:59;11.90;99.90
35613;DHT22;22054;51.646;7.078;2023-06-04T04:15:25;11.90;99.90
35613;DHT22;22054;51.646;7.078;2023-06-04T04:17:51;12.00;99.90
35613;DHT22;22054;51.646;7.078;2023-06-04T04:20:16;12.10;99.90
35613;DHT22;22054;51.646;7.078;2023-06-04T04:22:43;12.10;99.90
35613;DHT22;22054;51.646;7.078;2023-06-04T04:25:09;12.20;99.90
35613;DHT22;22054;51.646;7.078;2023-06-04T04:27:34;12.20;99.90
35613;DHT22;22054;51.646;7.078;2023-06-04T04:30:05;12.20;99.90
35613;DHT22;22054;51.646;7.078;2023-06-04T04:32:31;12.30;99.90
35613;DHT22;22054;51.646;7.078;2023-06-04T04:34:57;12.30;99.90
35613;DHT22;22054;51.646;7.078;2023-06-04T04:37:22;12.60;99.90
35613;DHT22;22054;51.646;7.078;2023-06-04T04:39:48;12.50;99.90
35613;DHT22;22054;51.646;7.078;2023-06-04T04:42:18;12.70;99.90
35613;DHT22;22054;51.646;7.078;2023-06-04T04:44:44;12.60;99.90
35613;DHT22;22054;51.646;7.078;2023-06-04T04:47:16;12.70;99.90
35613;DHT22;22054;51.646;7.078;2023-06-04T04:49:41;12.80;99.90
35613;DHT22;22054;51.646;7.078;2023-06-04T04:52:07;13.00;99.90
35613;DHT22;22054;51.646;7.078;2023-06-04T04:54:33;12.90;99.90
35613;DHT22;22054;51.646;7.078;2023-06-04T04:56:59;13.00;99.90
35613;DHT22;22054;51.646;7.078;2023-06-04T04:59:24;13.00;99.90
35613;DHT22;22054;51.646;7.078;2023-06-04T05:01:51;13.10;99.90
35613;DHT22;22054;51.646;7.078;2023-06-04T05:04:16;13.10;99.90
35613;DHT22;22054;51.646;7.078;2023-06-04T05:06:42;13.10;99.90
35613;DHT22;22054;51.646;7.078;2023-06-04T05:09:08;13.30;99.90
35613;DHT22;22054;51.646;7.078;2023-06-04T05:11:33;13.60;99.90
35613;DHT22;22054;51.646;7.078;2023-06-04T05:13:59;13.50;99.90
35613;DHT22;22054;51.646;7.078;2023-06-04T05:16:25;13.50;99.90
35613;DHT22;22054;51.646;7.078;2023-06-04T05:18:53;13.60;99.90
35613;DHT22;22054;51.646;7.078;2023-06-04T05:21:22;13.70;99.90
35613;DHT22;22054;51.646;7.078;2023-06-04T05:23:47;13.70;99.90
35613;DHT22;22054;51.646;7.078;2023-06-04T05:26:13;13.80;99.90
35613;DHT22;22054;51.646;7.078;2023-06-04T05:28:39;13.80;99.90
35613;DHT22;22054;51.646;7.078;2023-06-04T05:31:09;14.10;99.90
35613;DHT22;22054;51.646;7.078;2023-06-04T05:33:35;13.90;99.90
35613;DHT22;22054;51.646;7.078;2023-06-04T05:36:00;14.30;99.90
35613;DHT22;22054;51.646;7.078;2023-06-04T05:38:26;14.10;99.90
35613;DHT22;22054;51.646;7.078;2023-06-04T05:40:54;14.20;99.90
35613;DHT22;22054;51.646;7.078;2023-06-04T05:43:20;14.30;99.90
35613;DHT22;22054;51.646;7.078;2023-06-04T05:45:46;14.40;99.90
35613;DHT22;22054;51.646;7.078;2023-06-04T05:48:12;14.50;99.90
35613;DHT22;22054;51.646;7.078;2023-06-04T05:50:38;14.50;99.90
35613;DHT22;22054;51.646;7.078;2023-06-04T05:53:03;14.70;99.90
35613;DHT22;22054;51.646;7.078;2023-06-04T05:55:29;14.90;99.90
35613;DHT22;22054;51.646;7.078;2023-06-04T05:57:55;14.80;99.90
35613;DHT22;22054;51.646;7.078;2023-06-04T06:00:22;14.90;99.90
35613;DHT22;22054;51.646;7.078;2023-06-04T06:02:52;15.00;99.90
35613;DHT22;22054;51.646;7.078;2023-06-04T06:05:19;15.00;99.90
35613;DHT22;22054;51.646;7.078;2023-06-04T06:07:45;15.10;99.90
35613;DHT22;22054;51.646;7.078;2023-06-04T06:10:12;15.20;99.90
35613;DHT22;22054;51.646;7.078;2023-06-04T06:12:38;15.30;99.90
35613;DHT22;22054;51.646;7.078;2023-06-04T06:15:05;15.40;99.90
35613;DHT22;22054;51.646;7.078;2023-06-04T06:17:31;15.50;99.90
35613;DHT22;22054;51.646;7.078;2023-06-04T06:19:58;15.60;99.90
35613;DHT22;22054;51.646;7.078;2023-06-04T06:22:24;15.80;99.90
35613;DHT22;22054;51.646;7.078;2023-06-04T06:24:50;16.00;99.90
35613;DHT22;22054;51.646;7.078;2023-06-04T06:27:16;16.00;99.90
35613;DHT22;22054;51.646;7.078;2023-06-04T06:29:44;16.10;99.90
35613;DHT22;22054;51.646;7.078;2023-06-04T06:32:10;16.20;99.90
35613;DHT22;22054;51.646;7.078;2023-06-04T06:34:36;16.20;99.90
35613;DHT22;22054;51.646;7.078;2023-06-04T06:37:03;16.20;99.90
35613;DHT22;22054;51.646;7.078;2023-06-04T06:39:29;16.30;99.90
35613;DHT22;22054;51.646;7.078;2023-06-04T06:41:55;16.40;99.90
35613;DHT22;22054;51.646;7.078;2023-06-04T06:44:20;16.70;99.90
35613;DHT22;22054;51.646;7.078;2023-06-04T06:46:46;16.70;99.90
35613;DHT22;22054;51.646;7.078;2023-06-04T06:49:14;16.80;99.90
35613;DHT22;22054;51.646;7.078;2023-06-04T06:51:40;16.80;99.90
35613;DHT22;22054;51.646;7.078;2023-06-04T06:54:05;16.50;99.90
35613;DHT22;22054;51.646;7.078;2023-06-04T06:56:31;16.00;99.90
35613;DHT22;22054;51.646;7.078;2023-06-04T06:58:56;15.40;99.90
35613;DHT22;22054;51.646;7.078;2023-06-04T07:01:25;15.30;99.90
35613;DHT22;22054;51.646;7.078;2023-06-04T07:03:52;15.00;99.90
35613;DHT22;22054;51.646;7.078;2023-06-04T07:06:17;14.50;99.90
35613;DHT22;22054;51.646;7.078;2023-06-04T07:08:43;14.50;99.90
35613;DHT22;22054;51.646;7.078;2023-06-04T07:11:09;14.50;99.90
35613;DHT22;22054;51.646;7.078;2023-06-04T07:13:38;14.40;99.90
35613;DHT22;22054;51.646;7.078;2023-06-04T07:16:04;14.60;99.90
35613;DHT22;22054;51.646;7.078;2023-06-04T07:18:29;14.50;99.90
35613;DHT22;22054;51.646;7.078;2023-06-04T07:20:55;14.60;99.90
35613;DHT22;22054;51.646;7.078;2023-06-04T07:23:20;14.70;99.90
35613;DHT22;22054;51.646;7.078;2023-06-04T07:25:46;14.90;99.90
35613;DHT22;22054;51.646;7.078;2023-06-04T07:28:12;15.50;99.90
35613;DHT22;22054;51.646;7.078;2023-06-04T07:30:47;15.50;99.90
35613;DHT22;22054;51.646;7.078;2023-06-04T07:33:12;15.80;99.90
35613;DHT22;22054;51.646;7.078;2023-06-04T07:35:38;16.00;99.90
35613;DHT22;22054;51.646;7.078;2023-06-04T07:38:04;16.40;99.90
35613;DHT22;22054;51.646;7.078;2023-06-04T07:40:29;16.70;99.90
35613;DHT22;22054;51.646;7.078;2023-06-04T07:42:55;17.00;99.90
35613;DHT22;22054;51.646;7.078;2023-06-04T07:45:21;16.90;99.90
35613;DHT22;22054;51.646;7.078;2023-06-04T07:47:47;17.30;99.90
35613;DHT22;22054;51.646;7.078;2023-06-04T07:50:12;17.40;99.90
35613;DHT22;22054;51.646;7.078;2023-06-04T07:52:38;17.60;99.90
35613;DHT22;22054;51.646;7.078;2023-06-04T07:55:04;17.80;99.90
35613;DHT22;22054;51.646;7.078;2023-06-04T07:57:30;18.00;99.90
35613;DHT22;22054;51.646;7.078;2023-06-04T08:00:05;18.20;99.90
35613;DHT22;22054;51.646;7.078;2023-06-04T08:02:31;18.30;99.90
35613;DHT22;22054;51.646;7.078;2023-06-04T08:04:58;18.50;99.90
35613;DHT22;22054;51.646;7.078;2023-06-04T08:09:53;18.80;99.90
35613;DHT22;22054;51.646;7.078;2023-06-04T08:12:21;18.90;99.90
35613;DHT22;22054;51.646;7.078;2023-06-04T08:14:46;19.00;99.90
35613;DHT22;22054;51.646;7.078;2023-06-04T08:17:12;19.10;99.90
35613;DHT22;22054;51.646;7.078;2023-06-04T08:19:37;19.10;99.90
35613;DHT22;22054;51.646;7.078;2023-06-04T08:22:03;19.40;99.90
35613;DHT22;22054;51.646;7.078;2023-06-04T08:24:29;19.60;99.40
35613;DHT22;22054;51.646;7.078;2023-06-04T08:26:55;19.70;99.60
35613;DHT22;22054;51.646;7.078;2023-06-04T08:29:21;20.10;98.90
35613;DHT22;22054;51.646;7.078;2023-06-04T08:31:46;20.00;97.40
35613;DHT22;22054;51.646;7.078;2023-06-04T08:34:12;20.10;97.40
35613;DHT22;22054;51.646;7.078;2023-06-04T08:36:37;20.30;95.10
35613;DHT22;22054;51.646;7.078;2023-06-04T08:39:04;20.40;92.70
35613;DHT22;22054;51.646;7.078;2023-06-04T08:41:48;20.50;90.40
35613;DHT22;22054;51.646;7.078;2023-06-04T08:44:16;20.60;90.80
35613;DHT22;22054;51.646;7.078;2023-06-04T08:46:43;20.70;89.10
35613;DHT22;22054;51.646;7.078;2023-06-04T08:49:12;20.80;86.10
35613;DHT22;22054;51.646;7.078;2023-06-04T08:51:38;21.00;84.30
35613;DHT22;22054;51.646;7.078;2023-06-04T08:54:13;21.00;82.90
35613;DHT22;22054;51.646;7.078;2023-06-04T08:56:40;20.90;87.50
35613;DHT22;22054;51.646;7.078;2023-06-04T08:59:07;21.40;83.20
35613;DHT22;22054;51.646;7.078;2023-06-04T09:01:34;21.50;81.90
35613;DHT22;22054;51.646;7.078;2023-06-04T09:04:10;21.60;78.30
35613;DHT22;22054;51.646;7.078;2023-06-04T09:06:39;21.70;74.40
35613;DHT22;22054;51.646;7.078;2023-06-04T09:09:09;21.90;77.70
35613;DHT22;22054;51.646;7.078;2023-06-04T09:11:38;21.90;71.60
35613;DHT22;22054;51.646;7.078;2023-06-04T09:14:08;22.00;70.60
35613;DHT22;22054;51.646;7.078;2023-06-04T09:16:48;22.20;70.70
35613;DHT22;22054;51.646;7.078;2023-06-04T09:19:14;22.30;70.40
35613;DHT22;22054;51.646;7.078;2023-06-04T09:24:15;22.30;63.70
35613;DHT22;22054;51.646;7.078;2023-06-04T09:26:41;22.60;66.40
35613;DHT22;22054;51.646;7.078;2023-06-04T09:29:07;22.70;65.20
35613;DHT22;22054;51.646;7.078;2023-06-04T09:31:32;22.60;59.70
35613;DHT22;22054;51.646;7.078;2023-06-04T09:34:03;22.60;61.80
35613;DHT22;22054;51.646;7.078;2023-06-04T09:36:35;22.70;59.80
35613;DHT22;22054;51.646;7.078;2023-06-04T09:39:02;22.80;59.40
35613;DHT22;22054;51.646;7.078;2023-06-04T09:41:28;22.90;59.10
35613;DHT22;22054;51.646;7.078;2023-06-04T09:44:02;23.00;57.90
35613;DHT22;22054;51.646;7.078;2023-06-04T09:46:34;23.10;57.20
35613;DHT22;22054;51.646;7.078;2023-06-04T09:49:04;23.20;56.10
35613;DHT22;22054;51.646;7.078;2023-06-04T09:51:31;23.30;52.50
35613;DHT22;22054;51.646;7.078;2023-06-04T09:53:59;23.40;53.70
35613;DHT22;22054;51.646;7.078;2023-06-04T09:56:27;23.50;53.30
35613;DHT22;22054;51.646;7.078;2023-06-04T10:01:27;23.50;50.80
35613;DHT22;22054;51.646;7.078;2023-06-04T10:03:54;23.30;51.30
35613;DHT22;22054;51.646;7.078;2023-06-04T10:06:21;23.80;50.80
35613;DHT22;22054;51.646;7.078;2023-06-04T10:08:49;23.60;50.00
35613;DHT22;22054;51.646;7.078;2023-06-04T10:11:18;23.70;50.30
35613;DHT22;22054;51.646;7.078;2023-06-04T10:13:59;23.80;51.10
35613;DHT22;22054;51.646;7.078;2023-06-04T10:16:26;23.80;50.00
35613;DHT22;22054;51.646;7.078;2023-06-04T10:18:55;23.80;50.60
35613;DHT22;22054;51.646;7.078;2023-06-04T10:21:22;23.80;50.40
35613;DHT22;22054;51.646;7.078;2023-06-04T10:23:49;24.00;50.40
35613;DHT22;22054;51.646;7.078;2023-06-04T10:26:16;24.20;50.00
35613;DHT22;22054;51.646;7.078;2023-06-04T10:28:42;24.30;50.20
35613;DHT22;22054;51.646;7.078;2023-06-04T10:31:11;24.60;49.40
35613;DHT22;22054;51.646;7.078;2023-06-04T10:33:38;24.70;47.80
35613;DHT22;22054;51.646;7.078;2023-06-04T10:36:20;24.70;47.60
35613;DHT22;22054;51.646;7.078;2023-06-04T10:38:54;24.70;49.20
35613;DHT22;22054;51.646;7.078;2023-06-04T10:41:21;24.80;48.90
35613;DHT22;22054;51.646;7.078;2023-06-04T10:43:51;24.90;48.00
35613;DHT22;22054;51.646;7.078;2023-06-04T10:46:19;24.90;47.30
35613;DHT22;22054;51.646;7.078;2023-06-04T10:48:47;25.00;47.50
35613;DHT22;22054;51.646;7.078;2023-06-04T10:51:13;25.30;47.00
35613;DHT22;22054;51.646;7.078;2023-06-04T10:53:39;25.60;46.50
35613;DHT22;22054;51.646;7.078;2023-06-04T10:56:05;25.60;45.80
35613;DHT22;22054;51.646;7.078;2023-06-04T10:58:34;26.00;46.50
35613;DHT22;22054;51.646;7.078;2023-06-04T11:01:00;26.60;45.60
35613;DHT22;22054;51.646;7.078;2023-06-04T11:03:38;26.90;43.60
35613;DHT22;22054;51.646;7.078;2023-06-04T11:06:14;27.40;42.10
35613;DHT22;22054;51.646;7.078;2023-06-04T11:08:41;28.10;41.20
35613;DHT22;22054;51.646;7.078;2023-06-04T11:11:13;28.70;40.40
35613;DHT22;22054;51.646;7.078;2023-06-04T11:13:40;29.60;40.60
35613;DHT22;22054;51.646;7.078;2023-06-04T11:16:20;30.80;38.00
35613;DHT22;22054;51.646;7.078;2023-06-04T11:18:56;30.70;36.30
35613;DHT22;22054;51.646;7.078;2023-06-04T11:21:22;31.10;34.40
35613;DHT22;22054;51.646;7.078;2023-06-04T11:23:49;31.50;34.40
35613;DHT22;22054;51.646;7.078;2023-06-04T11:26:14;32.30;34.40
35613;DHT22;22054;51.646;7.078;2023-06-04T11:28:40;32.70;33.10
35613;DHT22;22054;51.646;7.078;2023-06-04T11:31:06;33.50;32.10
35613;DHT22;22054;51.646;7.078;2023-06-04T11:33:46;33.60;30.80
35613;DHT22;22054;51.646;7.078;2023-06-04T11:36:30;34.30;30.00
35613;DHT22;22054;51.646;7.078;2023-06-04T11:41:23;36.40;28.20
35613;DHT22;22054;51.646;7.078;2023-06-04T11:43:49;37.60;28.90
35613;DHT22;22054;51.646;7.078;2023-06-04T11:46:14;37.80;27.30
35613;DHT22;22054;51.646;7.078;2023-06-04T11:48:40;38.00;26.60
35613;DHT22;22054;51.646;7.078;2023-06-04T11:51:10;38.80;26.30
35613;DHT22;22054;51.646;7.078;2023-06-04T11:53:39;38.60;24.90
35613;DHT22;22054;51.646;7.078;2023-06-04T11:56:05;37.90;25.20
35613;DHT22;22054;51.646;7.078;2023-06-04T11:58:40;37.40;25.80
35613;DHT22;22054;51.646;7.078;2023-06-04T12:01:07;37.00;25.90
35613;DHT22;22054;51.646;7.078;2023-06-04T12:03:35;37.40;26.60
35613;DHT22;22054;51.646;7.078;2023-06-04T12:06:16;38.10;25.00
35613;DHT22;22054;51.646;7.078;2023-06-04T12:08:49;37.70;24.20
35613;DHT22;22054;51.646;7.078;2023-06-04T12:14:06;38.80;23.90
35613;DHT22;22054;51.646;7.078;2023-06-04T12:19:10;40.80;24.50
35613;DHT22;22054;51.646;7.078;2023-06-04T12:21:37;41.30;23.10
35613;DHT22;22054;51.646;7.078;2023-06-04T12:27:07;42.10;22.70
35613;DHT22;22054;51.646;7.078;2023-06-04T12:29:34;41.60;22.40
35613;DHT22;22054;51.646;7.078;2023-06-04T12:32:09;40.10;23.50
35613;DHT22;22054;51.646;7.078;2023-06-04T12:34:42;40.00;23.10
35613;DHT22;22054;51.646;7.078;2023-06-04T12:37:08;40.10;23.40
35613;DHT22;22054;51.646;7.078;2023-06-04T12:39:34;40.10;23.20
35613;DHT22;22054;51.646;7.078;2023-06-04T12:44:37;39.50;24.20
35613;DHT22;22054;51.646;7.078;2023-06-04T12:47:04;39.90;23.20
35613;DHT22;22054;51.646;7.078;2023-06-04T12:49:29;40.20;23.50
35613;DHT22;22054;51.646;7.078;2023-06-04T12:54:32;41.20;22.60
35613;DHT22;22054;51.646;7.078;2023-06-04T12:56:58;41.40;23.50
35613;DHT22;22054;51.646;7.078;2023-06-04T12:59:27;41.40;22.50
35613;DHT22;22054;51.646;7.078;2023-06-04T13:01:54;41.60;22.40
35613;DHT22;22054;51.646;7.078;2023-06-04T13:04:19;41.20;22.40
35613;DHT22;22054;51.646;7.078;2023-06-04T13:06:46;40.40;23.50
35613;DHT22;22054;51.646;7.078;2023-06-04T13:09:12;40.40;22.80
35613;DHT22;22054;51.646;7.078;2023-06-04T13:11:42;39.90;23.30
35613;DHT22;22054;51.646;7.078;2023-06-04T13:14:08;40.40;22.90
35613;DHT22;22054;51.646;7.078;2023-06-04T13:16:34;40.60;22.30
35613;DHT22;22054;51.646;7.078;2023-06-04T13:19:01;40.50;22.20
35613;DHT22;22054;51.646;7.078;2023-06-04T13:21:27;40.60;21.60
35613;DHT22;22054;51.646;7.078;2023-06-04T13:23:52;40.90;21.80
35613;DHT22;22054;51.646;7.078;2023-06-04T13:26:18;41.70;22.00
35613;DHT22;22054;51.646;7.078;2023-06-04T13:28:44;41.80;21.50
35613;DHT22;22054;51.646;7.078;2023-06-04T13:31:10;42.20;22.20
35613;DHT22;22054;51.646;7.078;2023-06-04T13:36:06;42.50;21.50
35613;DHT22;22054;51.646;7.078;2023-06-04T13:38:32;42.10;21.50
35613;DHT22;22054;51.646;7.078;2023-06-04T13:40:58;41.30;21.60
35613;DHT22;22054;51.646;7.078;2023-06-04T13:43:24;40.70;22.40
35613;DHT22;22054;51.646;7.078;2023-06-04T13:45:49;40.90;21.80
35613;DHT22;22054;51.646;7.078;2023-06-04T13:48:16;41.30;22.00
35613;DHT22;22054;51.646;7.078;2023-06-04T13:50:42;41.60;21.70
35613;DHT22;22054;51.646;7.078;2023-06-04T13:53:08;41.50;22.30
35613;DHT22;22054;51.646;7.078;2023-06-04T13:55:34;41.80;21.40
35613;DHT22;22054;51.646;7.078;2023-06-04T13:58:00;41.80;21.40
35613;DHT22;22054;51.646;7.078;2023-06-04T14:00:26;41.30;21.40
35613;DHT22;22054;51.646;7.078;2023-06-04T14:02:52;41.30;22.00
35613;DHT22;22054;51.646;7.078;2023-06-04T14:05:20;41.60;22.40
35613;DHT22;22054;51.646;7.078;2023-06-04T14:07:46;41.40;21.60
35613;DHT22;22054;51.646;7.078;2023-06-04T14:10:11;41.10;21.70
35613;DHT22;22054;51.646;7.078;2023-06-04T14:12:38;41.00;22.40
35613;DHT22;22054;51.646;7.078;2023-06-04T14:15:09;41.20;22.10
35613;DHT22;22054;51.646;7.078;2023-06-04T14:17:36;41.00;21.80
35613;DHT22;22054;51.646;7.078;2023-06-04T14:20:02;40.90;22.20
35613;DHT22;22054;51.646;7.078;2023-06-04T14:22:35;41.00;22.10
35613;DHT22;22054;51.646;7.078;2023-06-04T14:25:07;41.60;22.30
35613;DHT22;22054;51.646;7.078;2023-06-04T14:27:34;40.70;21.90
35613;DHT22;22054;51.646;7.078;2023-06-04T14:30:02;40.20;22.30
35613;DHT22;22054;51.646;7.078;2023-06-04T14:34:58;40.80;22.00
35613;DHT22;22054;51.646;7.078;2023-06-04T14:37:24;40.30;21.70
35613;DHT22;22054;51.646;7.078;2023-06-04T14:39:50;40.10;21.10
35613;DHT22;22054;51.646;7.078;2023-06-04T14:42:15;40.20;21.70
35613;DHT22;22054;51.646;7.078;2023-06-04T14:44:41;40.30;21.90
35613;DHT22;22054;51.646;7.078;2023-06-04T14:47:07;40.50;21.40
35613;DHT22;22054;51.646;7.078;2023-06-04T14:49:33;40.40;21.80
35613;DHT22;22054;51.646;7.078;2023-06-04T14:52:16;40.00;22.60
35613;DHT22;22054;51.646;7.078;2023-06-04T14:55:05;40.20;21.90
35613;DHT22;22054;51.646;7.078;2023-06-04T14:57:54;40.00;22.00
35613;DHT22;22054;51.646;7.078;2023-06-04T15:00:22;40.10;22.20
35613;DHT22;22054;51.646;7.078;2023-06-04T15:03:20;40.40;22.50
35613;DHT22;22054;51.646;7.078;2023-06-04T15:09:14;40.10;22.30
35613;DHT22;22054;51.646;7.078;2023-06-04T15:11:45;39.20;22.60
35613;DHT22;22054;51.646;7.078;2023-06-04T15:19:50;36.70;23.90
35613;DHT22;22054;51.646;7.078;2023-06-04T15:22:24;36.80;24.00
35613;DHT22;22054;51.646;7.078;2023-06-04T15:24:50;36.40;24.50
35613;DHT22;22054;51.646;7.078;2023-06-04T15:27:16;35.70;24.90
35613;DHT22;22054;51.646;7.078;2023-06-04T15:32:18;33.10;27.20
35613;DHT22;22054;51.646;7.078;2023-06-04T15:34:54;31.90;27.60
35613;DHT22;22054;51.646;7.078;2023-06-04T15:37:19;30.40;29.10
35613;DHT22;22054;51.646;7.078;2023-06-04T15:39:45;29.60;29.40
35613;DHT22;22054;51.646;7.078;2023-06-04T15:42:10;29.10;30.60
35613;DHT22;22054;51.646;7.078;2023-06-04T15:44:37;28.70;30.80
35613;DHT22;22054;51.646;7.078;2023-06-04T15:47:03;28.50;32.20
35613;DHT22;22054;51.646;7.078;2023-06-04T15:49:28;28.00;31.90
35613;DHT22;22054;51.646;7.078;2023-06-04T15:51:54;27.70;33.30
35613;DHT22;22054;51.646;7.078;2023-06-04T15:54:20;27.50;33.70
35613;DHT22;22054;51.646;7.078;2023-06-04T15:56:46;27.20;33.20
35613;DHT22;22054;51.646;7.078;2023-06-04T15:59:11;26.90;33.50
35613;DHT22;22054;51.646;7.078;2023-06-04T16:01:37;26.60;33.60
35613;DHT22;22054;51.646;7.078;2023-06-04T16:04:11;26.30;34.50
35613;DHT22;22054;51.646;7.078;2023-06-04T16:06:37;26.10;35.80
35613;DHT22;22054;51.646;7.078;2023-06-04T16:09:04;26.00;34.50
35613;DHT22;22054;51.646;7.078;2023-06-04T16:11:29;25.90;35.00
35613;DHT22;22054;51.646;7.078;2023-06-04T16:13:55;25.80;35.10
35613;DHT22;22054;51.646;7.078;2023-06-04T16:16:20;25.80;35.30